Time;durP1;ratioP1;P1;durP2;ratioP2;P2;SDS_P1;SDS_P2;PMS_P1;PMS_P2;Temp;Humidity;BMP_temperature;BMP_pressure;BME280_temperature;BME280_humidity;BME280_pressure;Samples;Min_cycle;Max_cycle;Signal;HPM_P1;HPM_P2
2023/07/29 00:01:45;;;;;;;3.10;1.60;;;21.60;99.90;;;;;;5033411;28;20466;-69
2023/07/29 00:04:13;;;;;;;1.90;1.43;;;21.60;99.90;;;;;;5033530;28;20458;-69
2023/07/29 00:06:39;;;;;;;1.40;1.30;;;21.60;99.90;;;;;;5032598;28;20949;-69
2023/07/29 00:09:06;;;;;;;4.97;1.60;;;21.60;99.90;;;;;;5042840;28;20446;-69
2023/07/29 00:11:33;;;;;;;3.10;1.50;;;21.60;99.90;;;;;;5035597;28;20470;-69
2023/07/29 00:14:02;;;;;;;4.93;1.70;;;21.60;99.90;;;;;;5036414;28;20450;-69
2023/07/29 00:16:29;;;;;;;4.60;1.53;;;21.60;99.90;;;;;;5036298;28;20468;-69
2023/07/29 00:18:55;;;;;;;3.37;1.87;;;21.50;99.90;;;;;;5036445;28;20450;-69
2023/07/29 00:21:22;;;;;;;8.73;1.77;;;21.50;99.90;;;;;;5036544;28;20466;-69
2023/07/29 00:23:49;;;;;;;6.97;1.50;;;21.50;99.90;;;;;;5036336;28;20450;-69
2023/07/29 00:26:16;;;;;;;3.50;1.63;;;21.40;99.90;;;;;;5034593;28;20489;-69
2023/07/29 00:28:42;;;;;;;3.10;1.57;;;21.40;99.90;;;;;;5036026;28;20453;-69
2023/07/29 00:31:10;;;;;;;2.13;1.87;;;21.40;99.90;;;;;;5036109;28;20474;-69
2023/07/29 00:33:37;;;;;;;4.97;1.20;;;21.40;99.90;;;;;;5036125;28;20457;-69
2023/07/29 00:36:04;;;;;;;2.80;1.83;;;21.40;99.90;;;;;;5035938;28;20501;-69
2023/07/29 00:38:31;;;;;;;4.17;1.60;;;21.30;99.90;;;;;;5035921;28;20450;-69
2023/07/29 00:40:58;;;;;;;2.30;1.83;;;21.30;99.90;;;;;;5035720;28;20470;-69
2023/07/29 00:43:25;;;;;;;4.27;1.47;;;21.30;99.90;;;;;;5035763;28;20451;-69
2023/07/29 00:45:53;;;;;;;5.27;2.50;;;21.30;99.90;;;;;;5035458;28;20453;-69
2023/07/29 00:48:21;;;;;;;2.93;1.70;;;21.30;99.90;;;;;;5036343;28;20485;-69
2023/07/29 00:50:48;;;;;;;7.07;1.43;;;21.20;99.90;;;;;;5035694;28;20482;-68
2023/07/29 00:53:15;;;;;;;3.17;1.40;;;21.20;99.90;;;;;;5035371;28;20822;-69
2023/07/29 00:55:42;;;;;;;5.37;1.60;;;21.20;99.90;;;;;;5035425;28;20474;-69
2023/07/29 00:58:08;;;;;;;4.13;1.63;;;21.10;99.90;;;;;;5035498;28;20438;-69
2023/07/29 01:00:35;;;;;;;3.10;2.00;;;21.10;99.90;;;;;;5035271;28;20483;-69
2023/07/29 01:03:02;;;;;;;4.17;1.90;;;21.10;99.90;;;;;;5034982;28;20970;-69
2023/07/29 01:05:40;;;;;;;2.00;1.87;;;21.20;99.90;;;;;;5035386;28;20802;-69
2023/07/29 01:08:14;;;;;;;2.10;1.67;;;21.20;99.90;;;;;;5036203;28;20504;-69
2023/07/29 01:10:47;;;;;;;2.67;2.17;;;21.10;99.90;;;;;;5033989;28;21094;-69
2023/07/29 01:13:20;;;;;;;4.77;1.50;;;21.20;99.90;;;;;;5035250;28;20435;-68
2023/07/29 01:15:54;;;;;;;3.80;1.70;;;21.20;99.90;;;;;;5034917;28;20522;-68
2023/07/29 01:18:24;;;;;;;4.33;1.63;;;21.20;99.90;;;;;;5035262;28;20438;-68
2023/07/29 01:20:54;;;;;;;3.90;1.70;;;21.10;99.90;;;;;;5033856;28;20494;-69
2023/07/29 01:23:26;;;;;;;6.23;1.70;;;21.20;99.90;;;;;;5034487;28;20442;-68
2023/07/29 01:25:52;;;;;;;8.00;1.80;;;21.10;99.90;;;;;;5034729;28;20833;-69
2023/07/29 01:28:19;;;;;;;4.00;2.10;;;21.10;99.90;;;;;;5035033;28;20447;-69
2023/07/29 01:30:49;;;;;;;2.00;1.43;;;21.10;99.90;;;;;;5033557;28;20466;-69
2023/07/29 01:33:20;;;;;;;2.67;1.97;;;21.10;99.90;;;;;;5034801;28;20438;-69
2023/07/29 01:35:51;;;;;;;6.00;1.97;;;21.10;99.90;;;;;;5034734;28;20467;-69
2023/07/29 01:38:20;;;;;;;5.77;2.20;;;21.10;99.90;;;;;;5034671;28;20442;-69
2023/07/29 01:40:49;;;;;;;10.20;2.30;;;21.10;99.90;;;;;;5034273;28;20843;-69
2023/07/29 01:43:18;;;;;;;7.03;1.93;;;21.10;99.90;;;;;;5034439;28;20457;-69
2023/07/29 01:45:46;;;;;;;3.43;1.93;;;21.10;99.90;;;;;;5036803;28;20454;-70
2023/07/29 01:48:12;;;;;;;3.47;1.70;;;21.10;99.90;;;;;;5049113;28;20475;-70
2023/07/29 01:50:39;;;;;;;6.57;2.00;;;21.10;99.90;;;;;;5037638;28;20470;-70
2023/07/29 01:53:06;;;;;;;5.13;1.90;;;21.20;99.90;;;;;;5035964;28;20450;-69
2023/07/29 01:55:33;;;;;;;5.50;1.97;;;21.10;99.90;;;;;;5035046;28;20486;-69
2023/07/29 01:58:01;;;;;;;6.83;2.27;;;21.10;99.90;;;;;;5034172;28;20859;-69
2023/07/29 02:00:27;;;;;;;3.83;2.40;;;21.10;99.90;;;;;;5034033;28;20483;-69
2023/07/29 02:02:54;;;;;;;8.37;2.23;;;21.10;99.90;;;;;;5034446;28;20450;-69
2023/07/29 02:05:21;;;;;;;5.40;2.10;;;21.10;99.90;;;;;;5034200;28;20454;-69
2023/07/29 02:07:47;;;;;;;3.30;1.73;;;21.10;99.90;;;;;;5034213;28;20446;-69
2023/07/29 02:10:14;;;;;;;11.33;2.00;;;21.10;99.90;;;;;;5034286;28;20473;-69
2023/07/29 02:12:41;;;;;;;8.10;2.90;;;21.10;99.90;;;;;;5034169;28;20456;-69
2023/07/29 02:15:11;;;;;;;11.10;1.90;;;21.10;99.90;;;;;;5032481;28;20509;-69
2023/07/29 02:17:38;;;;;;;5.70;1.90;;;21.10;99.90;;;;;;5033967;28;20462;-70
2023/07/29 02:20:05;;;;;;;8.40;2.03;;;21.00;99.90;;;;;;5034130;28;20839;-70
2023/07/29 02:22:32;;;;;;;3.93;2.03;;;21.00;99.90;;;;;;5033480;28;20959;-70
2023/07/29 02:24:59;;;;;;;4.60;1.70;;;21.10;99.90;;;;;;5035479;28;20450;-70
2023/07/29 02:27:26;;;;;;;4.40;1.80;;;21.10;99.90;;;;;;5033796;28;20466;-70
2023/07/29 02:29:53;;;;;;;2.40;1.70;;;21.10;99.90;;;;;;5033824;28;20473;-70
2023/07/29 02:32:22;;;;;;;4.30;1.67;;;21.10;99.90;;;;;;5033526;28;21018;-70
2023/07/29 02:34:50;;;;;;;4.70;1.93;;;21.10;99.90;;;;;;5032019;28;20447;-70
2023/07/29 02:37:16;;;;;;;8.20;2.10;;;21.10;99.90;;;;;;5033189;28;20447;-70
2023/07/29 02:39:43;;;;;;;5.10;1.83;;;21.10;99.90;;;;;;5033314;28;20859;-70
2023/07/29 02:42:10;;;;;;;5.17;2.07;;;21.00;99.90;;;;;;5033519;28;20451;-70
2023/07/29 02:44:36;;;;;;;5.10;2.67;;;21.00;99.90;;;;;;5033597;28;20449;-70
2023/07/29 02:47:04;;;;;;;3.87;2.77;;;21.00;99.90;;;;;;5033461;28;20462;-70
2023/07/29 02:49:32;;;;;;;4.30;2.13;;;21.00;99.90;;;;;;5033781;28;20450;-70
2023/07/29 02:51:58;;;;;;;4.13;2.70;;;20.90;99.90;;;;;;5033787;28;20446;-70
2023/07/29 02:54:25;;;;;;;3.00;2.50;;;20.90;99.90;;;;;;5033416;28;20504;-70
2023/07/29 02:56:52;;;;;;;4.00;2.37;;;20.90;99.90;;;;;;5033475;28;20840;-70
2023/07/29 02:59:19;;;;;;;3.23;2.80;;;20.90;99.90;;;;;;5032170;28;20945;-70
2023/07/29 03:01:46;;;;;;;2.50;2.30;;;20.90;99.90;;;;;;5033237;28;20474;-70
2023/07/29 03:04:13;;;;;;;4.40;2.50;;;20.90;99.90;;;;;;5033035;28;20837;-70
2023/07/29 03:06:42;;;;;;;3.43;2.20;;;20.80;99.90;;;;;;5033355;28;20451;-70
2023/07/29 03:09:09;;;;;;;6.97;4.03;;;20.80;99.90;;;;;;5033705;28;20451;-70
2023/07/29 03:11:36;;;;;;;5.33;2.93;;;20.80;99.90;;;;;;5033240;28;20517;-70
2023/07/29 03:14:03;;;;;;;5.27;3.40;;;20.80;99.90;;;;;;5033143;28;21050;-71
2023/07/29 03:16:29;;;;;;;5.83;3.10;;;20.70;99.90;;;;;;5032978;28;20502;-70
2023/07/29 03:18:57;;;;;;;4.17;2.80;;;20.70;99.90;;;;;;5033261;28;20864;-69
2023/07/29 03:21:24;;;;;;;3.87;2.33;;;20.70;99.90;;;;;;5032896;28;21000;-70
2023/07/29 03:23:52;;;;;;;5.07;2.60;;;20.70;99.90;;;;;;5033206;28;20453;-70
2023/07/29 03:26:19;;;;;;;5.83;3.20;;;20.70;99.90;;;;;;5031962;28;20442;-70
2023/07/29 03:28:45;;;;;;;6.17;3.00;;;20.70;99.90;;;;;;5033024;28;20450;-70
2023/07/29 03:31:12;;;;;;;9.83;3.00;;;20.70;99.90;;;;;;5032647;28;21002;-70
2023/07/29 03:33:39;;;;;;;3.30;3.00;;;20.70;99.90;;;;;;5032686;28;20537;-70
2023/07/29 03:36:06;;;;;;;4.60;3.40;;;20.70;99.90;;;;;;5033195;28;20478;-70
2023/07/29 03:38:35;;;;;;;3.73;3.00;;;20.60;99.90;;;;;;5032952;28;20457;-70
2023/07/29 03:41:03;;;;;;;6.47;3.90;;;20.60;99.90;;;;;;5032564;28;21038;-70
2023/07/29 03:43:30;;;;;;;4.90;3.20;;;20.60;99.90;;;;;;5032900;28;20529;-70
2023/07/29 03:45:57;;;;;;;4.47;3.60;;;20.60;99.90;;;;;;5032939;28;20454;-70
2023/07/29 03:48:23;;;;;;;4.43;3.60;;;20.50;99.90;;;;;;5036114;28;20940;-70
2023/07/29 03:50:50;;;;;;;9.57;3.93;;;20.50;99.90;;;;;;5036639;28;20497;-70
2023/07/29 03:53:17;;;;;;;2.97;2.77;;;20.50;99.90;;;;;;5036602;28;20450;-70
2023/07/29 03:55:43;;;;;;;4.83;3.23;;;20.50;99.90;;;;;;5036407;28;20482;-70
2023/07/29 03:58:12;;;;;;;8.10;4.07;;;20.40;99.90;;;;;;5036449;28;20446;-70
2023/07/29 04:00:39;;;;;;;3.53;3.20;;;20.40;99.90;;;;;;5038152;28;20493;-70
2023/07/29 04:03:06;;;;;;;3.47;3.17;;;20.30;99.90;;;;;;5050236;28;20454;-70
2023/07/29 04:05:33;;;;;;;4.30;3.97;;;20.30;99.90;;;;;;5042305;28;20461;-70
2023/07/29 04:07:59;;;;;;;3.47;3.17;;;20.30;99.90;;;;;;5039511;28;20785;-70
2023/07/29 04:10:26;;;;;;;6.23;3.63;;;20.20;99.90;;;;;;5038017;28;20470;-69
2023/07/29 04:12:53;;;;;;;3.63;3.00;;;20.30;99.90;;;;;;5036730;28;20458;-69
2023/07/29 04:15:21;;;;;;;7.67;3.50;;;20.30;99.90;;;;;;5036507;28;20473;-69
2023/07/29 04:17:48;;;;;;;3.20;2.90;;;20.30;99.90;;;;;;5036083;28;20956;-69
2023/07/29 04:20:15;;;;;;;3.60;3.03;;;20.20;99.90;;;;;;5036412;28;20476;-69
2023/07/29 04:22:41;;;;;;;3.10;2.53;;;20.20;99.90;;;;;;5035845;28;20815;-69
2023/07/29 04:25:08;;;;;;;3.43;2.63;;;20.20;99.90;;;;;;5036338;28;20446;-69
2023/07/29 04:27:35;;;;;;;3.87;2.53;;;20.20;99.90;;;;;;5035789;28;20446;-69
2023/07/29 04:30:02;;;;;;;5.57;3.23;;;20.20;99.90;;;;;;5036220;28;20473;-69
2023/07/29 04:32:30;;;;;;;3.10;2.90;;;20.20;99.90;;;;;;5036067;28;20558;-69
2023/07/29 04:34:57;;;;;;;2.83;2.60;;;20.10;99.90;;;;;;5036262;28;20454;-70
2023/07/29 04:37:24;;;;;;;4.00;2.80;;;20.20;99.90;;;;;;5036682;28;20520;-70
2023/07/29 04:39:51;;;;;;;6.07;3.40;;;20.10;99.90;;;;;;5036611;28;20462;-70
2023/07/29 04:42:18;;;;;;;2.87;2.67;;;20.20;99.90;;;;;;5035819;28;20967;-69
2023/07/29 04:44:44;;;;;;;2.97;2.40;;;20.20;99.90;;;;;;5035378;28;20940;-69
2023/07/29 04:47:11;;;;;;;2.83;2.60;;;20.20;99.90;;;;;;5035940;28;20446;-70
2023/07/29 04:49:39;;;;;;;3.40;2.67;;;20.20;99.90;;;;;;5035678;28;20451;-69
2023/07/29 04:52:07;;;;;;;3.73;2.33;;;20.30;99.90;;;;;;5035456;28;20450;-69
2023/07/29 04:54:33;;;;;;;6.50;2.80;;;20.30;99.90;;;;;;5035628;28;20500;-69
2023/07/29 04:57:00;;;;;;;3.23;2.50;;;20.30;99.90;;;;;;5035480;28;20477;-69
2023/07/29 04:59:27;;;;;;;2.77;2.33;;;20.30;99.90;;;;;;5034304;28;20512;-69
2023/07/29 05:01:54;;;;;;;2.43;2.23;;;20.30;99.90;;;;;;5035656;28;20470;-70
2023/07/29 05:04:20;;;;;;;2.77;2.57;;;20.30;99.90;;;;;;5035347;28;20461;-70
2023/07/29 05:06:49;;;;;;;3.00;2.20;;;20.30;99.90;;;;;;5034080;28;20522;-69
2023/07/29 05:09:16;;;;;;;3.40;2.07;;;20.20;99.90;;;;;;5035301;28;20453;-69
2023/07/29 05:11:45;;;;;;;2.50;2.30;;;20.20;99.90;;;;;;5035246;28;20506;-70
2023/07/29 05:14:12;;;;;;;1.80;1.70;;;20.20;99.90;;;;;;5035164;28;20542;-69
2023/07/29 05:16:39;;;;;;;2.70;2.10;;;20.20;99.90;;;;;;5034734;28;20490;-70
2023/07/29 05:19:05;;;;;;;2.67;1.67;;;20.20;99.90;;;;;;5035060;28;20451;-70
2023/07/29 05:21:33;;;;;;;1.80;1.70;;;20.20;99.90;;;;;;5035007;28;20832;-69
2023/07/29 05:24:01;;;;;;;4.80;1.80;;;20.10;99.90;;;;;;5035194;28;20447;-69
2023/07/29 05:26:28;;;;;;;2.50;1.67;;;20.10;99.90;;;;;;5034799;28;20836;-69
2023/07/29 05:28:55;;;;;;;3.00;1.60;;;20.00;99.90;;;;;;5035046;28;20446;-69
2023/07/29 05:31:22;;;;;;;2.17;1.97;;;20.00;99.90;;;;;;5034766;28;20474;-69
2023/07/29 05:33:49;;;;;;;2.50;2.30;;;20.00;99.90;;;;;;5034543;28;20976;-69
2023/07/29 05:36:16;;;;;;;2.77;1.97;;;20.00;99.90;;;;;;5034393;28;20478;-69
2023/07/29 05:38:43;;;;;;;2.07;1.97;;;20.00;99.90;;;;;;5034453;28;20478;-69
2023/07/29 05:41:11;;;;;;;2.97;2.13;;;20.00;99.90;;;;;;5034264;28;21010;-69
2023/07/29 05:43:38;;;;;;;2.30;1.90;;;20.00;99.90;;;;;;5034601;28;20450;-69
2023/07/29 05:46:05;;;;;;;1.90;1.80;;;20.00;99.90;;;;;;5034677;28;20451;-69
2023/07/29 05:48:32;;;;;;;1.60;1.50;;;19.90;99.90;;;;;;5034921;28;20447;-69
2023/07/29 05:50:59;;;;;;;2.63;1.70;;;19.90;99.90;;;;;;5034841;28;20474;-69
2023/07/29 05:53:26;;;;;;;3.30;1.77;;;19.90;99.90;;;;;;5034847;28;20457;-69
2023/07/29 05:55:53;;;;;;;2.67;1.60;;;19.90;99.90;;;;;;5034937;28;20457;-69
2023/07/29 05:58:21;;;;;;;1.77;1.67;;;19.90;99.90;;;;;;5036976;28;20457;-70
2023/07/29 06:00:48;;;;;;;6.60;1.70;;;19.90;99.90;;;;;;5039583;28;20475;-69
2023/07/29 06:03:15;;;;;;;3.40;2.00;;;19.90;99.90;;;;;;5037299;28;20447;-69
2023/07/29 06:05:42;;;;;;;2.57;2.03;;;20.00;99.90;;;;;;5037324;28;20451;-69
2023/07/29 06:08:09;;;;;;;4.40;2.37;;;20.00;99.90;;;;;;5038735;28;20485;-69
2023/07/29 06:10:36;;;;;;;2.77;2.40;;;20.00;99.90;;;;;;5038114;28;20494;-69
2023/07/29 06:13:03;;;;;;;3.40;3.10;;;20.10;99.90;;;;;;5037049;28;20455;-69
2023/07/29 06:15:31;;;;;;;4.33;3.43;;;20.20;99.90;;;;;;5037655;28;20458;-70
2023/07/29 06:17:57;;;;;;;3.80;3.50;;;20.30;99.90;;;;;;5043356;28;20469;-69
2023/07/29 06:20:25;;;;;;;8.80;3.40;;;20.40;99.90;;;;;;5043449;28;20470;-69
2023/07/29 06:22:52;;;;;;;4.90;4.13;;;20.40;99.90;;;;;;5038327;28;20978;-69
2023/07/29 06:25:18;;;;;;;4.97;3.43;;;20.50;99.90;;;;;;5037759;28;20446;-69
2023/07/29 06:27:45;;;;;;;5.73;2.63;;;20.50;99.90;;;;;;5036367;28;20447;-69
2023/07/29 06:30:12;;;;;;;4.70;2.70;;;20.50;99.90;;;;;;5034822;28;20467;-69
2023/07/29 06:32:40;;;;;;;7.70;3.03;;;20.60;99.90;;;;;;5033224;28;20449;-69
2023/07/29 06:35:08;;;;;;;3.90;2.50;;;20.60;99.90;;;;;;5034369;28;20458;-69
2023/07/29 06:37:35;;;;;;;3.07;2.80;;;20.70;99.90;;;;;;5034519;28;20486;-69
2023/07/29 06:40:01;;;;;;;4.40;2.83;;;20.80;99.90;;;;;;5034132;28;20462;-69
2023/07/29 06:42:28;;;;;;;2.37;1.93;;;20.80;99.90;;;;;;5034035;28;20816;-69
2023/07/29 06:44:55;;;;;;;2.13;1.93;;;20.90;99.90;;;;;;5034014;28;20438;-69
2023/07/29 06:47:22;;;;;;;4.37;2.00;;;20.90;99.90;;;;;;5033816;28;20446;-69
2023/07/29 06:49:50;;;;;;;2.80;2.60;;;21.00;99.90;;;;;;5033855;28;20442;-69
2023/07/29 06:52:16;;;;;;;2.90;2.07;;;21.10;99.90;;;;;;5035367;28;20451;-69
2023/07/29 06:54:43;;;;;;;3.93;2.20;;;20.90;99.90;;;;;;5039811;28;20446;-69
2023/07/29 06:57:10;;;;;;;2.53;1.70;;;20.90;99.90;;;;;;5033891;28;21007;-69
2023/07/29 06:59:37;;;;;;;3.60;2.23;;;21.00;99.90;;;;;;5033542;28;20449;-69
2023/07/29 07:02:04;;;;;;;2.23;2.03;;;21.00;99.90;;;;;;5033413;28;20473;-69
2023/07/29 07:04:30;;;;;;;5.97;2.27;;;21.10;99.90;;;;;;5033661;28;20454;-69
2023/07/29 07:06:59;;;;;;;3.47;2.00;;;21.10;99.90;;;;;;5033397;28;20451;-69
2023/07/29 07:09:26;;;;;;;2.40;2.20;;;21.10;99.90;;;;;;5033656;28;20453;-69
2023/07/29 07:11:53;;;;;;;9.07;2.27;;;21.10;99.90;;;;;;5033050;28;20471;-69
2023/07/29 07:14:20;;;;;;;2.47;1.80;;;21.20;99.90;;;;;;5033306;28;20859;-69
2023/07/29 07:16:47;;;;;;;1.70;1.60;;;21.00;99.90;;;;;;5033198;28;20488;-69
2023/07/29 07:19:14;;;;;;;1.60;1.50;;;21.10;99.90;;;;;;5033457;28;20462;-69
2023/07/29 07:21:40;;;;;;;2.30;1.90;;;21.20;99.90;;;;;;5034345;28;20877;-69
2023/07/29 07:24:08;;;;;;;1.67;1.57;;;21.30;99.90;;;;;;5037620;28;20446;-69
2023/07/29 07:26:35;;;;;;;2.70;1.70;;;21.40;99.50;;;;;;5036931;28;20825;-69
2023/07/29 07:29:03;;;;;;;1.90;1.80;;;21.40;99.90;;;;;;5039224;28;20970;-69
2023/07/29 07:31:35;;;;;;;2.00;1.90;;;21.60;99.30;;;;;;5039893;28;20474;-69
2023/07/29 07:34:03;;;;;;;1.27;1.17;;;21.70;99.10;;;;;;5040340;28;20431;-69
2023/07/29 07:36:31;;;;;;;1.13;1.03;;;21.80;98.80;;;;;;5040311;28;21018;-70
2023/07/29 07:38:58;;;;;;;2.27;1.43;;;21.90;98.10;;;;;;5040858;28;20453;-69
2023/07/29 07:41:26;;;;;;;1.17;1.07;;;21.90;95.90;;;;;;5041068;28;20470;-69
2023/07/29 07:43:53;;;;;;;1.43;1.20;;;21.80;96.20;;;;;;5040005;28;20458;-69
2023/07/29 07:46:20;;;;;;;2.60;1.27;;;21.80;96.60;;;;;;5040436;28;20815;-69
2023/07/29 07:48:48;;;;;;;4.10;1.60;;;21.80;96.70;;;;;;5039905;28;20446;-69
2023/07/29 07:51:15;;;;;;;1.23;1.13;;;21.80;96.10;;;;;;5039626;28;20470;-69
2023/07/29 07:53:47;;;;;;;2.63;0.90;;;21.90;97.00;;;;;;5040422;28;20931;-70
2023/07/29 07:56:16;;;;;;;1.03;1.00;;;22.00;95.90;;;;;;5039718;28;20441;-69
2023/07/29 07:58:47;;;;;;;1.57;1.20;;;22.10;94.80;;;;;;5050624;28;20530;-70
2023/07/29 08:01:15;;;;;;;2.43;2.23;;;22.20;94.20;;;;;;5048829;28;20483;-69
2023/07/29 08:03:42;;;;;;;3.10;1.87;;;22.40;94.50;;;;;;5048500;28;20442;-69
2023/07/29 08:06:09;;;;;;;3.10;1.50;;;22.40;92.90;;;;;;5049662;28;20446;-70
2023/07/29 08:08:37;;;;;;;1.67;1.40;;;22.40;92.80;;;;;;5049026;28;20453;-70
2023/07/29 08:13:52;;;;;;;3.40;2.07;;;22.70;91.70;;;;;;5045611;28;20505;-69
2023/07/29 08:16:18;;;;;;;4.33;1.43;;;22.90;92.70;;;;;;5044701;28;20450;-69
2023/07/29 08:18:48;;;;;;;1.20;1.10;;;23.00;92.10;;;;;;5043058;28;20490;-69
2023/07/29 08:21:16;;;;;;;1.23;0.93;;;23.20;92.90;;;;;;5024223;28;20470;-69
2023/07/29 08:23:43;;;;;;;1.13;1.03;;;23.30;91.60;;;;;;5039757;28;20452;-69
2023/07/29 08:26:10;;;;;;;4.27;1.10;;;23.30;91.00;;;;;;5040020;28;20449;-70
2023/07/29 08:28:40;;;;;;;2.50;1.50;;;23.40;91.10;;;;;;5038664;28;20447;-70
2023/07/29 08:31:09;;;;;;;1.20;1.10;;;23.60;91.50;;;;;;5044668;28;20471;-69
2023/07/29 08:33:37;;;;;;;1.90;0.80;;;23.80;90.10;;;;;;5056482;28;20450;-69
2023/07/29 08:36:05;;;;;;;1.07;0.97;;;24.10;89.30;;;;;;5048191;28;20447;-70
2023/07/29 08:38:32;;;;;;;1.00;1.00;;;24.30;88.70;;;;;;5042290;28;20995;-70
2023/07/29 08:41:12;;;;;;;0.60;0.60;;;24.60;88.00;;;;;;5039995;28;20474;-69
2023/07/29 08:43:44;;;;;;;1.70;0.80;;;24.80;82.50;;;;;;5039307;28;20431;-70
2023/07/29 08:46:15;;;;;;;2.23;1.00;;;25.10;84.70;;;;;;5037355;28;20435;-70
2023/07/29 08:48:44;;;;;;;1.23;0.93;;;25.40;81.30;;;;;;5038140;28;20443;-70
2023/07/29 08:51:12;;;;;;;1.20;0.90;;;25.60;80.30;;;;;;5038210;28;20467;-69
2023/07/29 08:53:39;;;;;;;0.70;0.60;;;25.60;77.90;;;;;;5036455;28;20446;-70
2023/07/29 08:56:14;;;;;;;0.80;0.80;;;25.40;78.30;;;;;;5038083;28;20454;-70
2023/07/29 08:58:42;;;;;;;1.83;0.70;;;25.40;78.10;;;;;;5037997;28;20510;-69
2023/07/29 09:01:09;;;;;;;1.00;0.90;;;25.20;77.90;;;;;;5038595;28;20481;-69
2023/07/29 09:03:38;;;;;;;1.23;0.90;;;25.10;77.40;;;;;;5038167;28;20447;-69
2023/07/29 09:06:07;;;;;;;0.80;0.80;;;25.10;77.00;;;;;;5038128;28;20469;-70
2023/07/29 09:08:35;;;;;;;2.63;1.03;;;25.10;77.20;;;;;;5044481;28;20442;-70
2023/07/29 09:11:09;;;;;;;3.40;1.13;;;25.20;76.80;;;;;;5042583;28;20467;-69
2023/07/29 09:13:37;;;;;;;0.60;0.60;;;25.10;78.30;;;;;;5040318;28;20434;-69
2023/07/29 09:16:10;;;;;;;1.00;1.00;;;25.20;78.80;;;;;;5039215;28;20462;-71
2023/07/29 09:18:38;;;;;;;5.70;1.30;;;25.10;75.30;;;;;;5038507;28;20490;-69
2023/07/29 09:21:05;;;;;;;0.97;0.80;;;24.90;76.10;;;;;;5038593;28;20474;-69
2023/07/29 09:23:41;;;;;;;1.13;1.10;;;24.70;78.30;;;;;;5038737;28;20457;-69
2023/07/29 09:26:08;;;;;;;1.57;0.90;;;24.70;81.60;;;;;;5038169;28;20466;-70
2023/07/29 09:28:37;;;;;;;4.37;1.00;;;24.50;79.30;;;;;;5037997;28;20450;-70
2023/07/29 09:31:05;;;;;;;0.83;0.80;;;24.60;82.30;;;;;;5037695;28;20463;-70
2023/07/29 09:33:36;;;;;;;3.00;1.23;;;24.70;80.20;;;;;;5036680;28;20453;-69
2023/07/29 09:36:10;;;;;;;4.40;1.10;;;24.80;78.00;;;;;;5036666;28;20470;-70
2023/07/29 09:38:41;;;;;;;1.37;1.10;;;24.80;78.00;;;;;;5036400;28;20994;-70
2023/07/29 09:41:07;;;;;;;1.20;0.90;;;24.90;78.10;;;;;;5035834;28;20462;-69
2023/07/29 09:43:36;;;;;;;2.83;1.23;;;24.70;78.40;;;;;;5036418;28;20463;-69
2023/07/29 09:46:08;;;;;;;1.63;1.03;;;24.60;78.30;;;;;;5036383;28;20821;-69
2023/07/29 09:48:41;;;;;;;1.53;0.90;;;24.50;79.50;;;;;;5036308;28;20435;-70
2023/07/29 09:51:17;;;;;;;2.17;1.07;;;24.60;77.90;;;;;;5036311;28;20467;-69
2023/07/29 09:53:48;;;;;;;1.67;1.13;;;24.70;79.70;;;;;;5037903;28;20445;-70
2023/07/29 09:56:17;;;;;;;2.20;1.13;;;25.10;80.30;;;;;;5048643;28;20433;-70
2023/07/29 09:58:45;;;;;;;1.20;1.10;;;25.40;79.40;;;;;;5044320;28;20478;-70
2023/07/29 10:01:13;;;;;;;0.73;0.73;;;25.90;75.20;;;;;;5042728;28;20544;-71
2023/07/29 10:03:42;;;;;;;1.63;1.10;;;26.60;74.20;;;;;;5043093;28;20442;-69
2023/07/29 10:06:11;;;;;;;1.70;1.20;;;27.10;68.80;;;;;;5042056;28;20509;-70
2023/07/29 10:08:44;;;;;;;1.90;0.93;;;27.20;66.10;;;;;;5040448;28;20971;-70
2023/07/29 10:11:14;;;;;;;2.93;1.10;;;27.30;62.60;;;;;;5039645;28;20983;-69
2023/07/29 10:13:41;;;;;;;1.07;0.90;;;26.80;64.50;;;;;;5039314;28;20462;-69
2023/07/29 10:16:08;;;;;;;3.27;1.40;;;26.50;66.40;;;;;;5038756;28;20479;-69
2023/07/29 10:18:36;;;;;;;2.30;0.90;;;26.50;67.80;;;;;;5037795;28;20486;-70
2023/07/29 10:21:03;;;;;;;3.80;1.03;;;26.30;67.30;;;;;;5038202;28;20470;-69
2023/07/29 10:23:48;;;;;;;0.90;0.90;;;26.00;68.70;;;;;;5038600;28;20451;-70
2023/07/29 10:26:16;;;;;;;0.90;0.90;;;26.10;70.80;;;;;;5037806;28;20524;-70
2023/07/29 10:28:48;;;;;;;3.30;1.10;;;26.10;70.70;;;;;;5038188;28;20442;-70
2023/07/29 10:31:17;;;;;;;1.50;1.40;;;26.10;68.90;;;;;;5036257;28;20474;-69
2023/07/29 10:33:46;;;;;;;3.30;1.07;;;26.20;69.70;;;;;;5037300;28;20445;-69
2023/07/29 10:36:16;;;;;;;0.90;0.80;;;26.00;68.20;;;;;;5035919;28;20446;-70
2023/07/29 10:38:45;;;;;;;1.17;1.07;;;26.00;69.60;;;;;;5037883;28;20467;-70
2023/07/29 10:41:11;;;;;;;0.90;0.90;;;26.40;69.30;;;;;;5038107;28;20466;-70
2023/07/29 10:43:40;;;;;;;1.20;1.10;;;27.20;68.80;;;;;;5048282;28;20433;-70
2023/07/29 10:46:17;;;;;;;1.53;1.40;;;28.10;66.70;;;;;;5051013;28;20442;-71
2023/07/29 10:48:52;;;;;;;2.37;0.97;;;29.00;62.60;;;;;;5042782;28;20932;-70
2023/07/29 10:51:29;;;;;;;1.20;1.10;;;29.90;56.90;;;;;;5040293;28;20461;-70
2023/07/29 10:53:58;;;;;;;2.27;1.10;;;30.90;54.70;;;;;;5035964;28;20457;-70
2023/07/29 10:56:30;;;;;;;1.30;1.20;;;31.70;51.50;;;;;;5034034;28;20454;-70
2023/07/29 10:58:58;;;;;;;1.63;1.40;;;32.40;46.50;;;;;;5033739;28;20477;-71
2023/07/29 11:01:29;;;;;;;1.47;1.37;;;32.30;46.30;;;;;;5034187;28;20461;-71
2023/07/29 11:04:21;;;;;;;2.03;1.30;;;32.10;47.10;;;;;;5033759;28;20458;-71
2023/07/29 11:07:23;;;;;;;1.33;1.23;;;31.70;47.20;;;;;;5033514;28;20445;-71
2023/07/29 11:10:01;;;;;;;3.03;1.20;;;30.90;49.00;;;;;;5033535;28;20523;-70
2023/07/29 11:12:43;;;;;;;1.57;0.90;;;29.90;50.10;;;;;;5033432;28;20813;-70
2023/07/29 11:15:18;;;;;;;3.10;1.27;;;29.30;52.80;;;;;;5033468;28;20500;-70
2023/07/29 11:17:46;;;;;;;3.30;1.10;;;28.80;54.60;;;;;;5033319;28;20493;-70
2023/07/29 11:20:14;;;;;;;2.60;1.20;;;28.70;55.90;;;;;;5034430;28;20474;-70
2023/07/29 11:22:41;;;;;;;1.40;1.30;;;28.70;55.50;;;;;;5033259;28;20504;-70
2023/07/29 11:25:11;;;;;;;1.40;1.30;;;28.80;54.10;;;;;;5033238;28;20541;-70
2023/07/29 11:27:38;;;;;;;2.20;1.20;;;28.60;53.00;;;;;;5033196;28;20532;-70
2023/07/29 11:30:08;;;;;;;3.70;0.93;;;28.70;54.60;;;;;;5033184;28;20466;-70
2023/07/29 11:32:35;;;;;;;1.57;0.90;;;29.20;53.60;;;;;;5033044;28;20465;-70
2023/07/29 11:35:03;;;;;;;1.27;1.10;;;29.80;52.10;;;;;;5033075;28;20453;-70
2023/07/29 11:37:30;;;;;;;1.60;1.40;;;30.30;50.80;;;;;;5033025;28;20481;-71
2023/07/29 11:39:58;;;;;;;1.77;0.87;;;30.90;49.20;;;;;;5033333;28;20470;-71
2023/07/29 11:42:28;;;;;;;1.20;1.03;;;31.80;47.90;;;;;;5033030;28;20499;-71
2023/07/29 11:44:56;;;;;;;1.63;1.20;;;32.40;45.20;;;;;;5033309;28;20873;-71
2023/07/29 11:47:23;;;;;;;1.17;1.07;;;32.30;44.90;;;;;;5033084;28;20458;-71
2023/07/29 11:49:50;;;;;;;2.30;1.40;;;32.40;46.30;;;;;;5033102;28;20461;-70
2023/07/29 11:52:19;;;;;;;4.40;1.20;;;32.70;44.60;;;;;;5032964;28;20449;-71
2023/07/29 11:54:47;;;;;;;1.40;1.10;;;33.20;43.20;;;;;;5032946;28;20446;-71
2023/07/29 11:57:14;;;;;;;1.83;1.23;;;33.50;43.30;;;;;;5031237;28;20449;-70
2023/07/29 11:59:43;;;;;;;1.57;1.27;;;34.20;42.40;;;;;;5032681;28;20572;-71
2023/07/29 12:02:13;;;;;;;3.30;1.30;;;34.90;38.60;;;;;;5032871;28;20453;-71
2023/07/29 12:04:40;;;;;;;1.37;1.20;;;35.70;37.20;;;;;;5032860;28;20488;-71
2023/07/29 12:07:07;;;;;;;2.23;1.20;;;36.70;36.90;;;;;;5032743;28;20673;-69
2023/07/29 12:09:35;;;;;;;1.60;1.03;;;37.30;34.10;;;;;;5036134;28;20199;-69
2023/07/29 12:12:02;;;;;;;1.98;1.40;;;37.40;33.50;;;;;;5037016;28;20203;-68
2023/07/29 12:14:29;;;;;;;1.25;1.10;;;37.30;34.30;;;;;;5036392;28;20214;-68
2023/07/29 12:17:01;;;;;;;3.45;1.20;;;37.30;31.70;;;;;;5036092;28;20681;-70
2023/07/29 12:19:34;;;;;;;1.48;1.33;;;37.40;32.30;;;;;;5036255;28;20222;-68
2023/07/29 12:22:00;;;;;;;2.53;1.45;;;37.50;32.30;;;;;;5036458;28;20219;-68
2023/07/29 12:24:27;;;;;;;1.17;1.08;;;38.10;32.20;;;;;;5036150;28;20207;-69
2023/07/29 12:26:54;;;;;;;1.25;1.15;;;38.30;30.90;;;;;;5036069;28;20239;-69
2023/07/29 12:29:21;;;;;;;2.72;1.40;;;38.00;31.00;;;;;;5036077;28;20209;-70
2023/07/29 12:31:48;;;;;;;3.83;1.40;;;37.60;30.50;;;;;;5035954;28;20234;-70
2023/07/29 12:34:20;;;;;;;3.15;1.60;;;37.40;30.80;;;;;;5036078;28;20226;-70
2023/07/29 12:36:49;;;;;;;3.73;1.50;;;36.60;32.70;;;;;;5036148;28;20237;-69
2023/07/29 12:39:23;;;;;;;1.70;1.60;;;35.80;34.10;;;;;;5037434;28;20229;-69
2023/07/29 12:41:51;;;;;;;2.77;1.70;;;34.70;35.70;;;;;;5036822;28;20226;-70
2023/07/29 12:44:18;;;;;;;4.43;1.60;;;33.70;37.80;;;;;;5038135;28;20819;-69
2023/07/29 12:46:46;;;;;;;4.20;1.77;;;33.00;40.40;;;;;;5038122;28;20458;-70
2023/07/29 12:49:13;;;;;;;2.97;1.37;;;32.40;41.40;;;;;;5037942;28;20450;-69
2023/07/29 12:51:41;;;;;;;2.07;1.30;;;31.90;42.40;;;;;;5037660;28;20470;-69
2023/07/29 12:54:08;;;;;;;1.50;1.40;;;31.40;44.10;;;;;;5042257;28;20453;-70